createdAt,value
2018-06-29T00:03:47.219Z,11.73
2018-06-29T00:08:50.814Z,6.47
2018-06-29T00:13:55.114Z,9.80
2018-06-29T00:18:58.693Z,6.63
2018-06-29T00:24:02.823Z,6.50
2018-06-29T00:29:06.644Z,6.50
2018-06-29T00:34:10.489Z,7.60
2018-06-29T00:39:14.007Z,8.67
2018-06-29T00:44:17.585Z,7.43
2018-06-29T00:49:21.274Z,14.27
2018-06-29T00:54:24.996Z,9.70
2018-06-29T00:59:29.034Z,12.53
2018-06-29T01:04:32.590Z,12.07
2018-06-29T01:09:36.971Z,9.30
2018-06-29T01:14:41.273Z,14.60
2018-06-29T01:19:44.782Z,11.27
2018-06-29T01:24:48.562Z,11.17
2018-06-29T01:29:52.695Z,15.60
2018-06-29T01:34:56.312Z,23.07
2018-06-29T01:39:59.739Z,25.20
2018-06-29T01:45:05.689Z,9.97
2018-06-29T01:50:09.983Z,14.47
2018-06-29T01:55:13.586Z,14.10
2018-06-29T02:00:17.657Z,15.77
2018-06-29T02:05:21.166Z,19.33
2018-06-29T02:10:24.894Z,11.60
2018-06-29T02:15:29.215Z,20.50
2018-06-29T02:20:32.941Z,17.10
2018-06-29T02:25:36.961Z,21.17
2018-06-29T02:30:40.807Z,25.50
2018-06-29T02:35:44.269Z,16.27
2018-06-29T02:40:47.877Z,31.03
2018-06-29T02:45:51.537Z,17.30
2018-06-29T02:50:55.332Z,25.47
2018-06-29T02:55:58.818Z,12.63
2018-06-29T03:01:03.121Z,26.50
2018-06-29T03:06:07.311Z,22.40
2018-06-29T03:11:10.870Z,14.03
2018-06-29T03:16:14.775Z,26.50
2018-06-29T03:21:18.366Z,20.77
2018-06-29T03:26:21.891Z,31.93
2018-06-29T03:31:25.520Z,17.47
2018-06-29T03:36:29.447Z,24.80
2018-06-29T03:41:33.022Z,31.50
2018-06-29T03:46:36.819Z,16.80
2018-06-29T03:51:40.110Z,26.03
2018-06-29T03:56:45.521Z,25.67
2018-06-29T04:01:49.449Z,30.30
2018-06-29T04:06:53.376Z,31.60
2018-06-29T04:11:57.003Z,30.20
2018-06-29T04:17:00.799Z,22.60
2018-06-29T04:22:04.426Z,29.10
2018-06-29T04:27:07.934Z,22.13
2018-06-29T04:32:11.659Z,38.27
2018-06-29T04:37:14.975Z,33.00
2018-06-29T04:42:18.706Z,39.53
2018-06-29T04:47:22.963Z,23.07
2018-06-29T04:52:26.507Z,26.27
2018-06-29T04:57:29.914Z,26.80
2018-06-29T05:02:33.870Z,25.77
2018-06-29T05:07:37.092Z,27.57
2018-06-29T05:12:40.694Z,24.87
2018-06-29T05:17:50.203Z,28.53
2018-06-29T05:22:54.417Z,28.27
2018-06-29T05:27:57.670Z,35.40
2018-06-29T05:33:01.026Z,29.43
2018-06-29T05:38:08.221Z,28.00
2018-06-29T05:43:12.021Z,17.40
2018-06-29T05:48:15.422Z,36.43
2018-06-29T05:53:18.894Z,29.60
2018-06-29T05:58:22.139Z,31.40
2018-06-29T06:03:26.503Z,35.33
2018-06-29T06:08:30.040Z,22.40
2018-06-29T06:13:33.434Z,20.93
2018-06-29T06:18:37.097Z,30.03
2018-06-29T06:23:40.343Z,29.83
2018-06-29T06:28:43.655Z,27.00
2018-06-29T06:33:46.941Z,26.23
2018-06-29T06:38:50.246Z,29.93
2018-06-29T06:43:53.473Z,25.70
2018-06-29T06:48:57.019Z,31.70
2018-06-29T06:54:00.262Z,28.83
2018-06-29T06:59:03.646Z,24.83
2018-06-29T07:04:07.120Z,23.40
2018-06-29T07:09:12.483Z,20.60
2018-06-29T07:14:16.206Z,19.23
2018-06-29T07:19:22.205Z,28.60
2018-06-29T07:24:25.797Z,50.20
2018-06-29T07:29:29.103Z,13.87
2018-06-29T07:34:32.497Z,25.73
2018-06-29T07:39:35.805Z,17.50
2018-06-29T07:44:39.038Z,24.53
2018-06-29T07:49:42.688Z,24.43
2018-06-29T07:54:49.813Z,18.33
2018-06-29T07:59:53.456Z,18.47
2018-06-29T08:04:57.746Z,16.47
2018-06-29T08:10:00.959Z,16.27
2018-06-29T08:15:04.807Z,14.83
2018-06-29T08:20:11.020Z,23.07
2018-06-29T08:25:16.829Z,10.80
2018-06-29T08:30:20.098Z,14.73
2018-06-29T08:35:23.402Z,8.47
2018-06-29T08:40:26.624Z,11.60
2018-06-29T08:45:29.950Z,14.10
2018-06-29T08:50:33.472Z,9.73
2018-06-29T08:55:37.018Z,9.60
2018-06-29T09:00:40.284Z,18.60
2018-06-29T09:05:44.177Z,13.03
2018-06-29T09:10:47.468Z,14.20
2018-06-29T09:15:51.136Z,7.97
2018-06-29T09:20:54.395Z,12.43
2018-06-29T09:25:58.139Z,10.30
2018-06-29T09:31:01.830Z,6.47
2018-06-29T09:36:05.174Z,4.60
2018-06-29T09:41:08.628Z,3.10
2018-06-29T09:46:11.871Z,3.77
2018-06-29T09:51:15.178Z,14.23
2018-06-29T09:56:18.459Z,7.67
2018-06-29T10:01:25.327Z,4.33
2018-06-29T10:06:29.102Z,4.87
2018-06-29T10:11:36.424Z,7.17
2018-06-29T10:16:40.242Z,2.83
2018-06-29T10:21:43.422Z,3.53
2018-06-29T10:26:46.682Z,1.40
2018-06-29T10:31:50.152Z,2.50
2018-06-29T10:36:53.543Z,3.90
2018-06-29T10:41:56.739Z,8.53
2018-06-29T10:46:59.940Z,5.07
2018-06-29T10:52:03.561Z,8.77
2018-06-29T10:57:07.082Z,6.50
2018-06-29T11:02:10.780Z,4.67
2018-06-29T11:07:15.079Z,3.43
2018-06-29T11:12:18.414Z,9.67
2018-06-29T11:17:21.663Z,2.07
2018-06-29T11:22:25.003Z,3.63
2018-06-29T11:27:28.270Z,2.83
2018-06-29T11:32:31.474Z,4.33
2018-06-29T11:37:35.355Z,4.40
2018-06-29T11:42:38.633Z,4.60
2018-06-29T11:47:41.922Z,4.97
2018-06-29T11:52:45.608Z,2.60
2018-06-29T11:57:48.894Z,2.67
2018-06-29T12:02:52.498Z,11.37
2018-06-29T12:07:56.426Z,3.53
2018-06-29T12:12:59.686Z,10.30
2018-06-29T12:18:02.982Z,5.77
2018-06-29T12:23:06.298Z,1.83
2018-06-29T12:28:09.556Z,8.63
2018-06-29T12:33:12.837Z,4.93
2018-06-29T12:38:16.464Z,2.60
2018-06-29T12:43:20.411Z,8.03
2018-06-29T12:48:24.083Z,6.10
2018-06-29T12:53:27.618Z,1.27
2018-06-29T12:58:30.917Z,11.13
2018-06-29T13:03:39.055Z,4.23
2018-06-29T13:08:43.499Z,12.57
2018-06-29T13:13:47.087Z,4.73
2018-06-29T13:18:50.482Z,0.90
2018-06-29T13:23:54.215Z,2.90
2018-06-29T13:28:57.580Z,2.83
2018-06-29T13:34:04.680Z,6.87
2018-06-29T13:39:12.701Z,3.40
2018-06-29T13:44:16.703Z,1.73
2018-06-29T13:49:20.260Z,2.23
2018-06-29T13:54:23.707Z,10.47
2018-06-29T13:59:27.235Z,2.77
2018-06-29T14:04:30.626Z,12.07
2018-06-29T14:09:34.439Z,1.93
2018-06-29T14:14:38.184Z,2.00
2018-06-29T14:19:45.790Z,2.70
2018-06-29T14:24:51.755Z,3.63
2018-06-29T14:29:59.349Z,2.30
2018-06-29T14:35:08.930Z,2.13
2018-06-29T14:40:18.052Z,2.50
2018-06-29T14:45:28.117Z,5.87
2018-06-29T14:50:37.438Z,3.73
2018-06-29T14:55:47.063Z,1.20
2018-06-29T15:00:56.305Z,3.30
2018-06-29T15:06:05.591Z,1.27
2018-06-29T15:11:14.997Z,4.73
2018-06-29T15:16:24.539Z,2.30
2018-06-29T15:21:34.108Z,0.83
2018-06-29T15:26:45.981Z,1.37
2018-06-29T15:31:55.027Z,0.63
2018-06-29T15:37:04.267Z,1.33
2018-06-29T15:42:14.087Z,1.20
2018-06-29T15:47:23.590Z,1.53
2018-06-29T15:52:33.360Z,6.00
2018-06-29T15:57:48.049Z,0.80
2018-06-29T16:02:57.626Z,0.63
2018-06-29T16:08:07.274Z,9.47
2018-06-29T16:13:16.648Z,1.97
2018-06-29T16:18:25.877Z,48.73
2018-06-29T16:23:34.894Z,6.87
2018-06-29T16:28:50.382Z,3.43
2018-06-29T16:34:00.166Z,1.33
2018-06-29T16:39:11.547Z,3.80
2018-06-29T16:44:21.268Z,4.47
2018-06-29T16:49:24.755Z,1.90
2018-06-29T16:54:28.065Z,1.40
2018-06-29T16:59:37.805Z,0.87
2018-06-29T17:04:47.090Z,0.90
2018-06-29T17:09:56.204Z,1.40
2018-06-29T17:15:05.668Z,4.83
2018-06-29T17:20:08.911Z,0.73
2018-06-29T17:25:12.305Z,0.70
2018-06-29T17:30:15.612Z,3.03
2018-06-29T17:35:19.689Z,1.43
2018-06-29T17:40:26.118Z,5.10
2018-06-29T17:45:30.689Z,2.77
2018-06-29T17:50:34.439Z,2.80
2018-06-29T17:55:38.649Z,3.13
2018-06-29T18:00:43.567Z,2.77
2018-06-29T18:05:47.383Z,6.10
2018-06-29T18:10:51.829Z,1.67
2018-06-29T18:15:55.483Z,3.27
2018-06-29T18:20:59.084Z,0.77
2018-06-29T18:26:02.579Z,1.60
2018-06-29T18:31:06.020Z,1.30
2018-06-29T18:36:10.257Z,1.23
2018-06-29T18:41:13.843Z,1.30
2018-06-29T18:46:17.336Z,0.80
2018-06-29T18:51:20.852Z,1.20
2018-06-29T18:56:24.235Z,6.50
2018-06-29T19:01:31.152Z,3.47
2018-06-29T19:06:34.975Z,4.23
2018-06-29T19:11:39.132Z,2.20
2018-06-29T19:16:42.554Z,7.30
2018-06-29T19:21:46.053Z,7.10
2018-06-29T19:26:49.394Z,2.87
2018-06-29T19:31:52.946Z,6.57
2018-06-29T19:37:00.510Z,1.63
2018-06-29T19:42:04.076Z,5.90
2018-06-29T19:47:07.907Z,1.50
2018-06-29T19:52:13.543Z,4.43
2018-06-29T19:57:17.151Z,3.63
2018-06-29T20:02:24.731Z,8.03
2018-06-29T20:07:28.100Z,1.77
2018-06-29T20:12:31.486Z,2.03
2018-06-29T20:17:35.404Z,2.30
2018-06-29T20:22:38.978Z,3.27
2018-06-29T20:27:42.286Z,63.40
2018-06-29T20:32:45.949Z,8.10
2018-06-29T20:37:49.425Z,4.97
2018-06-29T20:42:53.997Z,2.50
2018-06-29T20:48:02.728Z,1.60
2018-06-29T20:53:07.028Z,1.70
2018-06-29T20:58:13.757Z,2.00
2018-06-29T21:03:21.513Z,5.53
2018-06-29T21:08:25.216Z,17.33
2018-06-29T21:13:28.554Z,10.00
2018-06-29T21:18:33.587Z,18.95
2018-06-29T21:23:37.215Z,14.57
2018-06-29T21:28:40.470Z,34.97
2018-06-29T21:33:46.064Z,25.57
2018-06-29T21:38:49.955Z,11.60
2018-06-29T21:43:53.411Z,4.63
2018-06-29T21:48:56.751Z,12.63
2018-06-29T21:54:00.216Z,4.60
2018-06-29T21:59:09.505Z,2.90
2018-06-29T22:04:19.835Z,3.40
2018-06-29T22:09:27.368Z,5.30
2018-06-29T22:14:31.077Z,3.20
2018-06-29T22:19:34.604Z,5.40
2018-06-29T22:24:38.259Z,2.50
2018-06-29T22:29:41.513Z,4.40
2018-06-29T22:34:45.272Z,2.90
2018-06-29T22:39:48.850Z,2.47
2018-06-29T22:44:52.261Z,1.63
2018-06-29T22:49:55.567Z,2.07
2018-06-29T22:54:58.977Z,4.33
2018-06-29T23:00:02.276Z,1.33
2018-06-29T23:05:05.908Z,4.37
2018-06-29T23:10:09.464Z,2.90
2018-06-29T23:15:12.704Z,2.40
2018-06-29T23:20:16.903Z,1.30
2018-06-29T23:25:20.441Z,1.93
2018-06-29T23:30:28.672Z,3.27
2018-06-29T23:35:32.214Z,7.93
2018-06-29T23:40:36.472Z,1.67
2018-06-29T23:45:40.997Z,1.10
2018-06-29T23:50:44.850Z,1.63
2018-06-29T23:55:48.083Z,1.50
